createdAt,value
2022-09-04T00:00:53.950Z,99403.97
2022-09-04T01:18:08.451Z,99460.75
2022-09-04T03:26:21.661Z,99513.53
2022-09-04T04:06:58.398Z,99522.84
2022-09-04T04:08:39.294Z,99526.50
2022-09-04T04:21:27.117Z,99534.13
2022-09-04T04:30:37.949Z,99542.34
2022-09-04T05:25:39.813Z,99609.53
2022-09-04T05:37:40.360Z,99638.22
2022-09-04T05:46:28.538Z,99646.38
2022-09-04T05:50:08.688Z,99648.75
2022-09-04T05:53:34.282Z,99653.97
2022-09-04T05:57:04.814Z,99655.78
2022-09-04T06:00:10.648Z,99664.16
2022-09-04T06:03:19.066Z,99667.56
2022-09-04T06:06:15.671Z,99670.41
2022-09-04T06:09:29.733Z,99666.97
2022-09-04T06:13:09.214Z,99671.72
2022-09-04T06:16:19.901Z,99671.44
2022-09-04T06:19:38.643Z,99673.25
2022-09-04T06:22:55.061Z,99670.31
2022-09-04T06:26:16.722Z,99677.19
2022-09-04T06:29:41.921Z,99683.16
2022-09-04T06:33:18.063Z,99674.41
2022-09-04T06:36:51.258Z,99678.28
2022-09-04T06:39:55.967Z,99685.03
2022-09-04T06:42:59.897Z,99689.16
2022-09-04T06:46:27.940Z,99684.59
2022-09-04T06:50:00.102Z,99685.31
2022-09-04T07:08:33.753Z,99704.44
2022-09-04T07:31:27.023Z,99709.22
2022-09-04T07:34:22.777Z,99700.50
2022-09-04T07:37:28.064Z,99696.56
2022-09-04T07:51:03.646Z,99721.53
2022-09-04T07:54:22.970Z,99723.84
2022-09-04T07:57:28.911Z,99726.63
2022-09-04T08:00:18.999Z,99729.78
2022-09-04T08:03:49.169Z,99733.78
2022-09-04T08:06:51.115Z,99735.09
2022-09-04T08:10:22.319Z,99737.78
2022-09-04T08:13:36.376Z,99732.63
2022-09-04T08:16:32.279Z,99744.09
2022-09-04T08:19:43.011Z,99744.56
2022-09-04T08:22:43.414Z,99749.22
2022-09-04T08:25:49.779Z,99750.13
2022-09-04T08:29:07.263Z,99747.69
2022-09-04T08:32:13.957Z,99754.75
2022-09-04T08:35:11.578Z,99752.81
2022-09-04T08:38:24.222Z,99768.84
2022-09-04T08:41:54.548Z,99763.94
2022-09-04T08:45:42.162Z,99767.47
2022-09-04T08:49:17.267Z,99768.00
2022-09-04T08:52:52.782Z,99779.78
2022-09-04T08:56:18.678Z,99772.97
2022-09-04T09:00:03.950Z,99770.03
2022-09-04T09:03:48.257Z,99771.91
2022-09-04T09:07:23.982Z,99776.97
2022-09-04T09:10:38.020Z,99781.50
2022-09-04T09:14:31.950Z,99766.91
2022-09-04T09:17:38.632Z,99775.22
2022-09-04T09:20:31.200Z,99774.28
2022-09-04T09:23:22.160Z,99775.66
2022-09-04T09:26:35.570Z,99778.25
2022-09-04T09:29:56.219Z,99774.47
2022-09-04T09:33:41.615Z,99777.59
2022-09-04T09:37:34.433Z,99783.81
2022-09-04T09:40:57.794Z,99781.88
2022-09-04T09:44:39.916Z,99780.16
2022-09-04T09:48:24.277Z,99780.75
2022-09-04T09:51:51.020Z,99784.31
2022-09-04T09:55:32.126Z,99776.09
2022-09-04T09:58:56.655Z,99782.72
2022-09-04T10:02:38.353Z,99779.56
2022-09-04T10:05:59.444Z,99766.69
2022-09-04T10:09:38.903Z,99771.09
2022-09-04T10:13:18.268Z,99773.16
2022-09-04T10:16:30.393Z,99768.00
2022-09-04T10:20:11.484Z,99766.69
2022-09-04T10:23:37.495Z,99765.75
2022-09-04T10:27:16.556Z,99750.00
2022-09-04T10:30:10.213Z,99758.72
2022-09-04T10:33:31.402Z,99757.09
2022-09-04T10:36:36.068Z,99753.59
2022-09-04T10:39:50.312Z,99758.44
2022-09-04T10:42:55.961Z,99762.06
2022-09-04T10:45:48.741Z,99762.97
2022-09-04T10:49:07.861Z,99748.63
2022-09-04T10:52:35.602Z,99751.91
2022-09-04T10:55:58.067Z,99753.63
2022-09-04T10:59:09.914Z,99750.63
2022-09-04T11:02:30.079Z,99743.09
2022-09-04T11:05:44.766Z,99751.16
2022-09-04T11:09:19.978Z,99744.75
2022-09-04T11:12:50.969Z,99740.94
2022-09-04T11:16:04.588Z,99741.41
2022-09-04T11:19:52.916Z,99747.75
2022-09-04T11:23:28.024Z,99740.69
2022-09-04T11:27:08.043Z,99739.31
2022-09-04T11:30:08.389Z,99748.13
2022-09-04T11:33:44.194Z,99749.53
2022-09-04T11:37:29.881Z,99751.63
2022-09-04T11:41:16.518Z,99748.38
2022-09-04T11:44:49.503Z,99749.66
2022-09-04T11:48:08.879Z,99747.19
2022-09-04T11:51:37.276Z,99743.13
2022-09-04T11:55:03.321Z,99745.06
2022-09-04T11:58:09.768Z,99747.28
2022-09-04T12:01:16.419Z,99752.34
2022-09-04T12:04:28.579Z,99748.91
2022-09-04T12:07:43.093Z,99754.91
2022-09-04T12:10:55.948Z,99746.56
2022-09-04T12:14:19.780Z,99755.84
2022-09-04T12:17:49.260Z,99755.38
2022-09-04T12:21:20.278Z,99749.88
2022-09-04T12:24:52.569Z,99747.22
2022-09-04T12:28:18.973Z,99747.22
2022-09-04T12:31:29.136Z,99747.38
2022-09-04T12:34:41.174Z,99743.59
2022-09-04T12:37:54.071Z,99744.84
2022-09-04T12:40:53.691Z,99737.13
2022-09-04T12:43:59.461Z,99742.44
2022-09-04T12:47:07.128Z,99739.47
2022-09-04T12:50:33.826Z,99748.56
2022-09-04T12:53:56.906Z,99748.88
2022-09-04T12:56:53.268Z,99744.00
2022-09-04T12:59:58.175Z,99755.59
2022-09-04T13:02:59.968Z,99755.59
2022-09-04T13:06:15.431Z,99753.56
2022-09-04T13:09:19.117Z,99742.56
2022-09-04T13:12:22.086Z,99746.34
2022-09-04T13:15:43.968Z,99747.78
2022-09-04T13:18:50.176Z,99742.88
2022-09-04T13:22:06.684Z,99751.06
2022-09-04T13:25:08.777Z,99741.94
2022-09-04T13:28:17.057Z,99743.47
2022-09-04T13:31:33.537Z,99749.16
2022-09-04T13:34:35.721Z,99754.16
2022-09-04T13:37:34.164Z,99751.97
2022-09-04T13:40:56.034Z,99756.19
2022-09-04T13:44:29.043Z,99752.59
2022-09-04T13:47:22.945Z,99741.94
2022-09-04T13:50:26.331Z,99738.03
2022-09-04T13:53:22.489Z,99737.22
2022-09-04T13:56:17.041Z,99735.03
2022-09-04T13:59:10.799Z,99733.44
2022-09-04T14:02:04.879Z,99727.34
2022-09-04T14:04:57.492Z,99745.72
2022-09-04T14:07:49.284Z,99737.22
2022-09-04T14:11:03.374Z,99739.47
2022-09-04T14:14:45.887Z,99738.84
2022-09-04T14:17:42.543Z,99735.19
2022-09-04T14:20:37.167Z,99726.88
2022-09-04T14:23:37.328Z,99722.97
2022-09-04T14:26:40.717Z,99736.78
2022-09-04T14:29:38.746Z,99730.97
2022-09-04T14:32:42.628Z,99715.75
2022-09-04T14:35:37.896Z,99735.69
2022-09-04T14:39:06.669Z,99726.13
2022-09-04T14:42:42.645Z,99734.13
2022-09-04T14:46:07.008Z,99734.13
2022-09-04T14:49:04.296Z,99731.25
2022-09-04T14:51:56.597Z,99727.47
2022-09-04T14:54:46.719Z,99725.91
2022-09-04T14:57:42.720Z,99731.56
2022-09-04T15:00:33.416Z,99734.13
2022-09-04T15:03:25.755Z,99739.31
2022-09-04T15:06:21.323Z,99728.97
2022-09-04T15:09:25.090Z,99732.41
2022-09-04T15:12:24.536Z,99730.81
2022-09-04T15:15:21.585Z,99729.28
2022-09-04T15:18:16.998Z,99735.41
2022-09-04T15:21:17.273Z,99731.81
2022-09-04T15:24:21.192Z,99728.38
2022-09-04T15:27:20.080Z,99729.78
2022-09-04T15:30:19.357Z,99729.78
2022-09-04T15:33:10.329Z,99727.56
2022-09-04T15:36:09.164Z,99725.22
2022-09-04T15:39:01.186Z,99731.03
2022-09-04T15:41:51.058Z,99732.47
2022-09-04T15:44:44.656Z,99729.78
2022-09-04T15:47:56.776Z,99732.00
2022-09-04T15:50:59.477Z,99731.66
2022-09-04T15:54:09.743Z,99728.22
2022-09-04T15:57:08.481Z,99721.78
2022-09-04T16:00:02.192Z,99720.19
2022-09-04T16:03:12.176Z,99716.78
2022-09-04T16:06:08.938Z,99715.19
2022-09-04T16:09:01.641Z,99713.19
2022-09-04T16:11:59.852Z,99711.91
2022-09-04T16:14:53.399Z,99717.41
2022-09-04T16:17:48.411Z,99716.63
2022-09-04T16:20:49.329Z,99721.50
2022-09-04T16:23:39.450Z,99720.56
2022-09-04T16:26:32.398Z,99719.66
2022-09-04T16:29:36.781Z,99713.88
2022-09-04T16:32:28.363Z,99714.19
2022-09-04T16:35:21.431Z,99711.38
2022-09-04T16:38:17.080Z,99714.38
2022-09-04T16:41:16.055Z,99709.63
2022-09-04T16:44:16.706Z,99716.41
2022-09-04T16:47:22.781Z,99707.94
2022-09-04T16:50:23.715Z,99713.59
2022-09-04T16:53:20.439Z,99697.13
2022-09-04T16:56:26.399Z,99700.91
2022-09-04T16:59:24.808Z,99703.09
2022-09-04T17:02:22.509Z,99706.09
2022-09-04T17:05:28.057Z,99705.63
2022-09-04T17:08:23.462Z,99706.59
2022-09-04T17:11:19.119Z,99711.47
2022-09-04T17:14:18.688Z,99714.31
2022-09-04T17:17:29.886Z,99704.59
2022-09-04T17:20:40.174Z,99707.41
2022-09-04T17:29:00.395Z,99702.28
2022-09-04T17:29:16.882Z,99699.00
2022-09-04T17:30:09.508Z,99694.63
2022-09-04T17:40:06.307Z,99705.94
2022-09-04T17:40:44.479Z,99698.09
2022-09-04T17:40:53.992Z,99700.44
2022-09-04T17:43:21.797Z,99696.81
2022-09-04T17:46:24.734Z,99700.00
2022-09-04T17:49:20.196Z,99708.94
2022-09-04T17:52:09.163Z,99707.22
2022-09-04T17:55:05.583Z,99711.59
2022-09-04T17:58:03.773Z,99709.44
2022-09-04T18:01:15.138Z,99709.59
2022-09-04T18:04:22.474Z,99710.66
2022-09-04T18:08:06.905Z,99725.22
2022-09-04T18:10:36.130Z,99730.25
2022-09-04T18:13:37.768Z,99732.28
2022-09-04T18:17:12.763Z,99745.59
2022-09-04T18:20:12.850Z,99747.63
2022-09-04T18:23:50.820Z,99750.56
2022-09-04T18:26:46.989Z,99755.28
2022-09-04T18:30:42.866Z,99754.13
2022-09-04T18:37:20.412Z,99766.59
2022-09-04T18:37:24.932Z,99758.50
2022-09-04T18:39:49.795Z,99764.72
2022-09-04T18:50:21.515Z,99776.72
2022-09-04T18:50:22.855Z,99771.75
2022-09-04T18:50:51.124Z,99771.53
2022-09-04T18:52:48.702Z,99782.63
2022-09-04T18:55:45.450Z,99783.53
2022-09-04T18:58:53.165Z,99791.19
2022-09-04T19:01:45.943Z,99787.88
2022-09-04T19:04:48.158Z,99792.97
2022-09-04T19:07:44.052Z,99798.13
2022-09-04T19:10:34.638Z,99792.63
2022-09-04T19:13:28.679Z,99796.97
2022-09-04T19:16:24.088Z,99801.94
2022-09-04T19:19:19.431Z,99798.34
2022-09-04T19:22:15.754Z,99804.56
2022-09-04T19:25:08.106Z,99801.25
2022-09-04T19:28:01.063Z,99804.00
2022-09-04T19:30:54.216Z,99797.56
2022-09-04T19:33:49.671Z,99796.59
2022-09-04T19:36:43.871Z,99804.97
2022-09-04T19:45:56.271Z,99806.44
2022-09-04T19:46:18.136Z,99807.47
2022-09-04T19:46:27.925Z,99812.91
2022-09-04T19:53:00.310Z,99811.63
2022-09-04T19:53:32.832Z,99810.47
2022-09-04T19:55:48.134Z,99808.72
2022-09-04T19:58:44.184Z,99799.50
2022-09-04T20:01:43.637Z,99804.88
2022-09-04T20:04:41.406Z,99811.09
2022-09-04T20:07:44.765Z,99804.63
2022-09-04T20:10:39.657Z,99800.97
2022-09-04T20:13:35.235Z,99808.53
2022-09-04T20:16:28.628Z,99816.13
2022-09-04T20:19:27.555Z,99815.94
2022-09-04T20:22:34.932Z,99810.53
2022-09-04T20:25:41.616Z,99810.16
2022-09-04T20:28:48.744Z,99812.88
2022-09-04T20:31:49.391Z,99811.91
2022-09-04T20:34:46.191Z,99822.94
2022-09-04T20:37:45.968Z,99813.97
2022-09-04T20:40:42.394Z,99810.16
2022-09-04T20:43:43.633Z,99812.56
2022-09-04T20:52:45.032Z,99812.97
2022-09-04T20:52:51.599Z,99822.88
2022-09-04T20:53:20.298Z,99825.41
2022-09-04T20:57:01.011Z,99815.38
2022-09-04T21:03:10.524Z,99818.63
2022-09-04T21:03:18.412Z,99817.91
2022-09-04T21:06:24.478Z,99824.59
2022-09-04T21:09:30.171Z,99812.97
2022-09-04T21:12:28.340Z,99815.22
2022-09-04T21:15:29.587Z,99813.75
2022-09-04T21:18:36.390Z,99822.06
2022-09-04T21:21:47.476Z,99823.47
2022-09-04T21:25:18.551Z,99819.94
2022-09-04T21:28:39.799Z,99830.09
2022-09-04T21:32:09.493Z,99836.03
2022-09-04T21:35:07.615Z,99837.91
2022-09-04T21:38:15.695Z,99838.25
2022-09-04T21:41:41.797Z,99846.47
2022-09-04T21:45:25.958Z,99845.19
2022-09-04T21:48:57.691Z,99845.28
2022-09-04T21:52:26.154Z,99849.25
2022-09-04T21:59:41.170Z,99848.22
2022-09-04T22:02:37.645Z,99858.56
2022-09-04T22:02:51.478Z,99858.72
2022-09-04T22:05:51.641Z,99869.09
2022-09-04T22:13:29.893Z,99875.97
2022-09-04T22:13:44.179Z,99873.69
2022-09-04T22:15:48.452Z,99876.63
2022-09-04T22:19:24.080Z,99875.66
2022-09-04T22:23:20.271Z,99878.38
2022-09-04T22:32:30.135Z,99876.75
2022-09-04T22:36:27.834Z,99874.72
2022-09-04T22:40:09.349Z,99878.44
2022-09-04T22:43:13.318Z,99877.34
2022-09-04T22:47:27.402Z,99877.63
2022-09-04T22:50:49.508Z,99871.34
